createdAt,value
2023-04-18T00:03:01.631Z,62.05
2023-04-18T00:06:05.812Z,63.17
2023-04-18T00:09:07.217Z,64.31
2023-04-18T00:12:08.741Z,63.27
2023-04-18T00:15:11.539Z,62.18
2023-04-18T00:18:17.209Z,62.26
2023-04-18T00:21:18.732Z,61.88
2023-04-18T00:24:20.165Z,62.12
2023-04-18T00:27:21.876Z,61.15
2023-04-18T00:30:23.306Z,60.79
2023-04-18T00:33:24.961Z,60.68
2023-04-18T00:36:27.782Z,60.55
2023-04-18T00:39:29.241Z,61.05
2023-04-18T00:42:30.934Z,61.18
2023-04-18T00:45:32.475Z,60.61
2023-04-18T00:48:34.028Z,60.84
2023-04-18T00:51:35.854Z,60.65
2023-04-18T00:54:38.356Z,61.22
2023-04-18T00:57:40.460Z,63.02
2023-04-18T01:00:42.891Z,63.55
2023-04-18T01:03:47.238Z,63.02
2023-04-18T01:06:50.046Z,62.58
2023-04-18T01:09:53.190Z,62.31
2023-04-18T01:13:16.137Z,62.17
2023-04-18T01:16:17.747Z,61.40
2023-04-18T01:19:19.347Z,62.79
2023-04-18T01:22:20.829Z,63.42
2023-04-18T01:25:22.342Z,63.15
2023-04-18T01:28:23.836Z,63.05
2023-04-18T01:31:25.306Z,62.31
2023-04-18T01:34:26.763Z,62.77
2023-04-18T01:37:28.254Z,63.31
2023-04-18T01:40:32.651Z,63.29
2023-04-18T01:43:34.672Z,63.40
2023-04-18T01:46:38.808Z,63.24
2023-04-18T01:49:42.798Z,63.18
2023-04-18T01:52:44.247Z,64.31
2023-04-18T01:55:45.704Z,63.93
2023-04-18T01:58:47.110Z,63.14
2023-04-18T02:01:48.548Z,62.90
2023-04-18T02:04:50.028Z,63.08
2023-04-18T02:07:51.438Z,63.26
2023-04-18T02:10:52.870Z,63.19
2023-04-18T02:13:55.546Z,62.73
2023-04-18T02:16:57.389Z,63.37
2023-04-18T02:19:58.882Z,63.16
2023-04-18T02:23:00.751Z,63.20
2023-04-18T02:26:04.403Z,63.37
2023-04-18T02:29:05.814Z,63.36
2023-04-18T02:32:07.461Z,63.58
2023-04-18T02:35:11.318Z,63.39
2023-04-18T02:38:13.789Z,63.69
2023-04-18T02:41:19.270Z,64.25
2023-04-18T02:44:21.705Z,63.96
2023-04-18T02:47:23.576Z,64.23
2023-04-18T02:50:25.263Z,64.21
2023-04-18T02:53:28.822Z,63.92
2023-04-18T02:56:30.612Z,64.69
2023-04-18T02:59:53.097Z,64.75
2023-04-18T03:03:13.116Z,64.76
2023-04-18T03:06:24.463Z,64.62
2023-04-18T03:09:27.672Z,65.13
2023-04-18T03:12:33.920Z,65.26
2023-04-18T03:15:37.500Z,66.35
2023-04-18T03:18:39.772Z,66.60
2023-04-18T03:21:41.471Z,66.64
2023-04-18T03:24:46.706Z,66.41
2023-04-18T03:27:49.415Z,65.20
2023-04-18T03:30:52.584Z,65.44
2023-04-18T03:33:54.066Z,65.01
2023-04-18T03:36:56.348Z,65.29
2023-04-18T03:39:58.269Z,65.65
2023-04-18T03:43:02.553Z,65.68
2023-04-18T03:46:04.275Z,64.86
2023-04-18T03:49:06.342Z,65.40
2023-04-18T03:52:07.811Z,65.24
2023-04-18T03:55:09.433Z,66.43
2023-04-18T03:58:10.871Z,66.23
2023-04-18T04:01:13.754Z,65.93
2023-04-18T04:04:15.389Z,65.74
2023-04-18T04:07:17.779Z,65.37
2023-04-18T04:10:19.322Z,66.08
2023-04-18T04:13:22.369Z,66.62
2023-04-18T04:16:24.712Z,65.96
2023-04-18T04:19:28.914Z,66.18
2023-04-18T04:22:41.435Z,65.76
2023-04-18T04:25:46.234Z,65.77
2023-04-18T04:29:03.390Z,66.16
2023-04-18T04:32:06.875Z,65.96
2023-04-18T04:35:12.586Z,66.58
2023-04-18T04:38:15.309Z,66.41
2023-04-18T04:41:22.722Z,66.42
2023-04-18T04:44:26.102Z,66.88
2023-04-18T04:47:28.954Z,66.73
2023-04-18T04:50:30.416Z,65.95
2023-04-18T04:53:31.904Z,66.03
2023-04-18T04:56:36.472Z,66.35
2023-04-18T04:59:38.347Z,65.90
2023-04-18T05:02:40.600Z,66.49
2023-04-18T05:05:42.410Z,66.35
2023-04-18T05:08:43.923Z,65.86
2023-04-18T05:11:45.384Z,66.49
2023-04-18T05:14:46.904Z,66.34
2023-04-18T05:17:48.436Z,66.04
2023-04-18T05:20:50.013Z,66.04
2023-04-18T05:23:51.562Z,66.28
2023-04-18T05:26:53.189Z,66.35
2023-04-18T05:29:54.814Z,65.95
2023-04-18T05:32:56.469Z,66.13
2023-04-18T05:35:58.750Z,66.14
2023-04-18T05:39:00.208Z,66.15
2023-04-18T05:42:02.243Z,67.15
2023-04-18T05:45:03.927Z,65.96
2023-04-18T05:48:05.554Z,65.27
2023-04-18T05:51:07.026Z,65.42
2023-04-18T05:54:08.466Z,65.53
2023-04-18T05:57:09.898Z,65.57
2023-04-18T06:00:12.139Z,65.63
2023-04-18T06:03:16.785Z,66.19
2023-04-18T06:06:18.421Z,65.81
2023-04-18T06:09:19.903Z,66.17
2023-04-18T06:12:21.372Z,66.09
2023-04-18T06:15:22.778Z,66.23
2023-04-18T06:18:24.256Z,65.77
2023-04-18T06:21:26.825Z,65.30
2023-04-18T06:24:30.181Z,65.76
2023-04-18T06:27:32.716Z,65.60
2023-04-18T06:30:34.295Z,65.29
2023-04-18T06:33:37.620Z,65.17
2023-04-18T06:36:39.451Z,65.23
2023-04-18T06:39:40.867Z,65.39
2023-04-18T06:42:43.160Z,65.19
2023-04-18T06:45:44.620Z,65.06
2023-04-18T06:48:46.070Z,64.80
2023-04-18T06:51:47.512Z,65.26
2023-04-18T06:54:48.927Z,64.75
2023-04-18T06:57:50.310Z,64.80
2023-04-18T07:00:52.033Z,65.03
2023-04-18T07:03:53.841Z,64.77
2023-04-18T07:06:55.445Z,64.61
2023-04-18T07:09:57.001Z,64.48
2023-04-18T07:12:58.475Z,64.28
2023-04-18T07:16:00.575Z,64.28
2023-04-18T07:19:02.006Z,63.73
2023-04-18T07:22:03.478Z,63.62
2023-04-18T07:25:05.285Z,63.48
2023-04-18T07:28:06.718Z,63.61
2023-04-18T07:31:11.292Z,64.74
2023-04-18T07:34:14.030Z,64.53
2023-04-18T07:37:17.483Z,63.93
2023-04-18T07:40:19.079Z,64.33
2023-04-18T07:43:20.955Z,63.76
2023-04-18T07:46:22.558Z,63.80
2023-04-18T07:49:24.147Z,64.38
2023-04-18T07:52:25.756Z,63.63
2023-04-18T07:55:27.240Z,64.57
2023-04-18T07:58:29.200Z,64.69
2023-04-18T08:01:30.929Z,65.00
2023-04-18T08:04:33.227Z,63.61
2023-04-18T08:07:34.640Z,63.44
2023-04-18T08:10:36.514Z,63.67
2023-04-18T08:13:38.022Z,63.43
2023-04-18T08:16:39.966Z,64.07
2023-04-18T08:19:41.450Z,63.21
2023-04-18T08:22:57.714Z,62.80
2023-04-18T08:26:04.841Z,63.12
2023-04-18T08:29:06.326Z,62.72
2023-04-18T08:32:08.087Z,62.57
2023-04-18T08:35:09.546Z,62.70
2023-04-18T08:38:10.961Z,62.97
2023-04-18T08:41:12.615Z,62.16
2023-04-18T08:44:14.323Z,62.19
2023-04-18T08:47:16.349Z,62.16
2023-04-18T08:50:18.393Z,61.55
2023-04-18T08:53:19.820Z,62.69
2023-04-18T08:56:25.926Z,62.83
2023-04-18T08:59:27.428Z,62.02
2023-04-18T09:02:42.601Z,61.58
2023-04-18T09:06:13.549Z,61.57
2023-04-18T09:09:15.225Z,61.88
2023-04-18T09:12:22.351Z,61.50
2023-04-18T09:15:27.131Z,62.04
2023-04-18T09:18:28.615Z,60.85
2023-04-18T09:21:30.372Z,60.27
2023-04-18T09:24:32.556Z,59.62
2023-04-18T09:27:34.905Z,59.40
2023-04-18T09:30:40.624Z,58.28
2023-04-18T09:33:54.047Z,57.51
2023-04-18T09:37:21.941Z,57.15
2023-04-18T09:40:24.033Z,58.57
2023-04-18T09:43:25.515Z,57.99
2023-04-18T09:46:27.549Z,59.45
2023-04-18T09:49:29.301Z,59.18
2023-04-18T09:52:38.528Z,59.15
2023-04-18T09:55:41.430Z,59.26
2023-04-18T09:58:47.055Z,59.43
2023-04-18T10:01:49.647Z,58.66
2023-04-18T10:04:53.994Z,58.56
2023-04-18T10:07:56.088Z,58.16
2023-04-18T10:10:58.656Z,57.29
2023-04-18T10:14:07.878Z,57.67
2023-04-18T10:17:10.225Z,58.72
2023-04-18T10:20:20.186Z,58.61
2023-04-18T10:23:30.808Z,58.63
2023-04-18T10:26:46.999Z,57.84
2023-04-18T10:29:52.941Z,58.67
2023-04-18T10:32:55.467Z,58.38
2023-04-18T10:35:58.832Z,57.51
2023-04-18T10:39:03.950Z,58.21
2023-04-18T10:42:05.455Z,58.53
2023-04-18T10:45:18.374Z,58.29
2023-04-18T10:48:30.315Z,58.35
2023-04-18T10:51:32.071Z,58.04
2023-04-18T10:54:38.741Z,57.91
2023-04-18T10:57:45.399Z,58.37
2023-04-18T11:00:49.598Z,58.11
2023-04-18T11:03:52.184Z,57.69
2023-04-18T11:06:58.309Z,57.31
2023-04-18T11:10:00.337Z,57.49
2023-04-18T11:13:06.434Z,57.36
2023-04-18T11:16:08.161Z,58.11
2023-04-18T11:19:23.555Z,58.29
2023-04-18T11:22:25.183Z,57.86
2023-04-18T11:25:28.461Z,57.48
2023-04-18T11:28:29.974Z,57.52
2023-04-18T11:31:31.468Z,57.80
2023-04-18T11:34:33.083Z,58.01
2023-04-18T11:37:37.516Z,58.07
2023-04-18T11:40:39.161Z,57.81
2023-04-18T11:43:45.693Z,58.05
2023-04-18T11:46:47.623Z,57.80
2023-04-18T11:50:01.809Z,57.78
2023-04-18T11:53:03.228Z,58.31
2023-04-18T11:56:05.467Z,57.96
2023-04-18T11:59:09.986Z,57.25
2023-04-18T12:05:30.425Z,54.96
2023-04-18T12:08:32.763Z,55.13
2023-04-18T12:11:34.562Z,55.52
2023-04-18T12:14:36.131Z,55.41
2023-04-18T12:17:38.204Z,55.92
2023-04-18T12:20:49.859Z,54.66
2023-04-18T12:23:51.722Z,54.94
2023-04-18T12:26:53.205Z,54.64
2023-04-18T12:29:54.677Z,54.61
2023-04-18T12:32:58.384Z,54.35
2023-04-18T12:35:59.957Z,53.51
2023-04-18T12:39:01.741Z,53.20
2023-04-18T12:42:03.689Z,53.48
2023-04-18T12:45:07.640Z,53.12
2023-04-18T12:48:09.149Z,53.92
2023-04-18T12:51:10.551Z,54.67
2023-04-18T12:54:12.235Z,55.64
2023-04-18T12:57:13.962Z,55.34
2023-04-18T13:00:15.496Z,55.58
2023-04-18T13:03:17.331Z,55.97
2023-04-18T13:06:19.071Z,55.05
2023-04-18T13:09:20.563Z,54.72
2023-04-18T13:12:22.046Z,54.76
2023-04-18T13:15:23.884Z,55.90
2023-04-18T13:18:25.532Z,54.43
2023-04-18T13:21:27.501Z,55.33
2023-04-18T13:24:28.926Z,54.65
